Terminal Aerodrome Forecast
Issued by NWS Sioux Falls, SD

Home | Current Version | Previous Version | Text Only | Print | Product List | Glossary On
Versions: 1 2 3 4 5 6 7 8 9 10 11 12 13 14 15 16 17 18 19
000
FTUS43 KFSD 261129
TAFFSD
TAF
KFSD 261129Z 2612/2712 33015G22KT P6SM -DZ OVC008
     FM261500 34017G26KT P6SM OVC012
     FM261900 33016G24KT P6SM OVC020
     FM270300 34011KT P6SM BKN030
     FM270800 34009KT P6SM OVC015=

USA.gov is the U.S. government's official web portal to all federal, state and local government web resources and services.